Unbenanntes Dokument
Flugplatz Bielefeld Platzwetter

 

Aktuelles Platzwetter am Flugplatz Bielefeld EDLI

20.04.18 ,22:14 Uhr

METAR EDLI 202213Z 01004KT 9999 19/09 Q1021

 

Windwerte

 

Wolkenuntergrenzen

Wind aktuell:010 ° mit 2 kt
Wind 10 min Extrem:
310 ° bis 40 ° mit 1 kt bis 7 kt
Seitenwindkomponente: -2.9 kt
Wolkengrenze 1:
Wolkengrenze 2:
Wolkengrenze 3:

Webcam

Temperatur

       

Sichtweite:

20.000 Meter

19.7 °C
Taupunkt: 9.9 °C
Luftfeuchtigkeit: 53 %

Luftdruck:

QNH: 1021 hPa (30.15 in Hg)
QFE: 1005 hPa (29.68 in Hg)

Diese Daten werden automatisch ermittelt bzw. übertragen und sind nicht geprüft. Für die Richtigkeit wird daher keine Gewähr übernommen. Sie ersetzen im übrigen nicht die Flugwetterberatung. Alle Zeitangaben beziehen sich auf UTC. Die Seite wird einmal die Minute aktualisiert! Sollten Sie ein ältere Seite haben, so drücken Sie bitte auf den Reload Button Ihres Browsers!